sensor_id;sensor_type;location;lat;lon;timestamp;P1;durP1;ratioP1;P2;durP2;ratioP2
46391;SDS011;32098;49.448;7.904;2024-03-23T00:52:28;15.77;;;11.33;;
46391;SDS011;32098;49.448;7.904;2024-03-23T00:54:53;14.50;;;10.40;;
46391;SDS011;32098;49.448;7.904;2024-03-23T00:57:19;11.47;;;8.60;;
46391;SDS011;32098;49.448;7.904;2024-03-23T00:59:52;14.00;;;9.00;;
46391;SDS011;32098;49.448;7.904;2024-03-23T01:02:18;11.67;;;9.40;;
46391;SDS011;32098;49.448;7.904;2024-03-23T01:04:44;15.47;;;9.87;;
46391;SDS011;32098;49.448;7.904;2024-03-23T01:07:10;14.67;;;9.43;;
46391;SDS011;32098;49.448;7.904;2024-03-23T01:09:36;12.80;;;10.17;;
46391;SDS011;32098;49.448;7.904;2024-03-23T01:12:04;15.03;;;11.70;;
46391;SDS011;32098;49.448;7.904;2024-03-23T01:14:30;24.10;;;15.50;;
46391;SDS011;32098;49.448;7.904;2024-03-23T01:16:56;18.87;;;12.60;;
46391;SDS011;32098;49.448;7.904;2024-03-23T01:19:22;18.90;;;12.57;;
46391;SDS011;32098;49.448;7.904;2024-03-23T01:21:48;14.57;;;11.43;;
46391;SDS011;32098;49.448;7.904;2024-03-23T01:24:15;16.43;;;11.63;;
46391;SDS011;32098;49.448;7.904;2024-03-23T01:26:41;16.83;;;10.90;;
46391;SDS011;32098;49.448;7.904;2024-03-23T01:29:06;15.07;;;10.40;;
46391;SDS011;32098;49.448;7.904;2024-03-23T01:31:32;14.80;;;10.50;;
46391;SDS011;32098;49.448;7.904;2024-03-23T01:34:06;14.43;;;10.70;;
46391;SDS011;32098;49.448;7.904;2024-03-23T01:36:32;15.53;;;10.27;;
46391;SDS011;32098;49.448;7.904;2024-03-23T01:38:58;14.83;;;10.57;;
46391;SDS011;32098;49.448;7.904;2024-03-23T01:41:24;15.70;;;10.60;;
46391;SDS011;32098;49.448;7.904;2024-03-23T01:43:50;17.27;;;11.47;;
46391;SDS011;32098;49.448;7.904;2024-03-23T01:46:16;15.13;;;11.13;;
46391;SDS011;32098;49.448;7.904;2024-03-23T01:48:42;18.60;;;11.73;;
46391;SDS011;32098;49.448;7.904;2024-03-23T01:51:08;16.53;;;12.00;;
46391;SDS011;32098;49.448;7.904;2024-03-23T01:53:34;17.37;;;12.30;;
46391;SDS011;32098;49.448;7.904;2024-03-23T01:56:00;15.67;;;11.57;;
46391;SDS011;32098;49.448;7.904;2024-03-23T01:58:27;18.47;;;12.23;;
46391;SDS011;32098;49.448;7.904;2024-03-23T02:01:01;17.47;;;12.83;;
46391;SDS011;32098;49.448;7.904;2024-03-23T02:03:27;18.87;;;12.73;;
46391;SDS011;32098;49.448;7.904;2024-03-23T02:05:54;18.47;;;13.47;;
46391;SDS011;32098;49.448;7.904;2024-03-23T02:08:21;18.63;;;13.07;;
46391;SDS011;32098;49.448;7.904;2024-03-23T02:10:51;20.50;;;13.33;;
46391;SDS011;32098;49.448;7.904;2024-03-23T02:13:18;18.37;;;12.70;;
46391;SDS011;32098;49.448;7.904;2024-03-23T02:15:44;16.73;;;12.13;;
46391;SDS011;32098;49.448;7.904;2024-03-23T02:18:11;18.63;;;13.20;;
46391;SDS011;32098;49.448;7.904;2024-03-23T02:20:37;19.87;;;12.83;;
46391;SDS011;32098;49.448;7.904;2024-03-23T02:23:04;18.27;;;12.30;;
46391;SDS011;32098;49.448;7.904;2024-03-23T02:25:32;17.47;;;13.07;;
46391;SDS011;32098;49.448;7.904;2024-03-23T02:27:59;18.70;;;13.13;;
46391;SDS011;32098;49.448;7.904;2024-03-23T02:30:25;19.53;;;12.80;;
46391;SDS011;32098;49.448;7.904;2024-03-23T02:32:51;20.27;;;12.97;;
46391;SDS011;32098;49.448;7.904;2024-03-23T02:35:17;18.53;;;12.93;;
46391;SDS011;32098;49.448;7.904;2024-03-23T02:37:43;18.80;;;12.83;;
46391;SDS011;32098;49.448;7.904;2024-03-23T02:40:09;20.33;;;13.20;;
46391;SDS011;32098;49.448;7.904;2024-03-23T02:42:35;18.27;;;13.10;;
46391;SDS011;32098;49.448;7.904;2024-03-23T02:45:00;18.97;;;13.23;;
46391;SDS011;32098;49.448;7.904;2024-03-23T02:47:26;20.70;;;13.50;;
46391;SDS011;32098;49.448;7.904;2024-03-23T02:49:56;20.57;;;14.10;;
46391;SDS011;32098;49.448;7.904;2024-03-23T02:52:22;21.57;;;13.83;;
46391;SDS011;32098;49.448;7.904;2024-03-23T02:54:48;20.73;;;13.83;;
46391;SDS011;32098;49.448;7.904;2024-03-23T02:57:13;23.73;;;14.73;;
46391;SDS011;32098;49.448;7.904;2024-03-23T03:02:11;22.87;;;14.70;;
46391;SDS011;32098;49.448;7.904;2024-03-23T03:04:37;22.87;;;15.30;;
46391;SDS011;32098;49.448;7.904;2024-03-23T03:07:02;23.03;;;14.37;;
46391;SDS011;32098;49.448;7.904;2024-03-23T03:09:29;23.57;;;14.73;;
46391;SDS011;32098;49.448;7.904;2024-03-23T03:12:03;21.97;;;14.23;;
46391;SDS011;32098;49.448;7.904;2024-03-23T03:14:30;21.50;;;14.77;;
46391;SDS011;32098;49.448;7.904;2024-03-23T03:16:55;21.30;;;13.70;;
46391;SDS011;32098;49.448;7.904;2024-03-23T03:19:21;20.73;;;14.53;;
46391;SDS011;32098;49.448;7.904;2024-03-23T03:21:47;21.97;;;14.40;;
46391;SDS011;32098;49.448;7.904;2024-03-23T03:24:15;22.40;;;14.57;;
46391;SDS011;32098;49.448;7.904;2024-03-23T03:26:42;22.07;;;14.57;;
46391;SDS011;32098;49.448;7.904;2024-03-23T03:29:08;19.40;;;13.17;;
46391;SDS011;32098;49.448;7.904;2024-03-23T03:31:34;21.77;;;14.07;;
46391;SDS011;32098;49.448;7.904;2024-03-23T03:34:00;24.73;;;14.60;;
46391;SDS011;32098;49.448;7.904;2024-03-23T03:36:26;20.97;;;14.40;;
46391;SDS011;32098;49.448;7.904;2024-03-23T03:38:52;20.60;;;13.27;;
46391;SDS011;32098;49.448;7.904;2024-03-23T03:41:18;18.83;;;13.20;;
46391;SDS011;32098;49.448;7.904;2024-03-23T03:43:44;19.63;;;12.73;;
46391;SDS011;32098;49.448;7.904;2024-03-23T03:46:10;20.10;;;13.00;;
46391;SDS011;32098;49.448;7.904;2024-03-23T03:48:36;18.87;;;12.43;;
46391;SDS011;32098;49.448;7.904;2024-03-23T03:51:04;18.50;;;11.63;;
46391;SDS011;32098;49.448;7.904;2024-03-23T03:53:30;18.07;;;12.43;;
46391;SDS011;32098;49.448;7.904;2024-03-23T03:55:56;15.27;;;10.60;;
46391;SDS011;32098;49.448;7.904;2024-03-23T03:58:25;15.53;;;10.30;;
46391;SDS011;32098;49.448;7.904;2024-03-23T04:00:51;14.90;;;9.67;;
46391;SDS011;32098;49.448;7.904;2024-03-23T04:03:17;16.37;;;10.37;;
46391;SDS011;32098;49.448;7.904;2024-03-23T04:05:43;14.63;;;9.80;;
46391;SDS011;32098;49.448;7.904;2024-03-23T04:08:15;13.50;;;9.67;;
46391;SDS011;32098;49.448;7.904;2024-03-23T04:10:41;14.10;;;8.00;;
46391;SDS011;32098;49.448;7.904;2024-03-23T04:13:06;12.40;;;7.90;;
46391;SDS011;32098;49.448;7.904;2024-03-23T04:15:32;9.80;;;6.50;;
46391;SDS011;32098;49.448;7.904;2024-03-23T04:17:58;9.67;;;6.67;;
46391;SDS011;32098;49.448;7.904;2024-03-23T04:20:25;11.17;;;6.57;;
46391;SDS011;32098;49.448;7.904;2024-03-23T04:22:51;9.03;;;5.80;;
46391;SDS011;32098;49.448;7.904;2024-03-23T04:25:18;8.50;;;5.80;;
46391;SDS011;32098;49.448;7.904;2024-03-23T04:27:45;9.17;;;5.93;;
46391;SDS011;32098;49.448;7.904;2024-03-23T04:30:11;8.13;;;4.47;;
46391;SDS011;32098;49.448;7.904;2024-03-23T04:32:38;6.90;;;4.70;;
46391;SDS011;32098;49.448;7.904;2024-03-23T04:35:05;6.67;;;4.30;;
46391;SDS011;32098;49.448;7.904;2024-03-23T04:37:32;5.13;;;3.60;;
46391;SDS011;32098;49.448;7.904;2024-03-23T04:39:59;4.43;;;3.63;;
46391;SDS011;32098;49.448;7.904;2024-03-23T04:42:27;6.40;;;4.03;;
46391;SDS011;32098;49.448;7.904;2024-03-23T04:44:53;5.80;;;4.17;;
46391;SDS011;32098;49.448;7.904;2024-03-23T04:47:19;4.77;;;3.93;;
46391;SDS011;32098;49.448;7.904;2024-03-23T04:49:44;6.60;;;3.70;;
46391;SDS011;32098;49.448;7.904;2024-03-23T04:52:10;4.33;;;3.77;;
46391;SDS011;32098;49.448;7.904;2024-03-23T04:54:36;4.83;;;3.87;;
46391;SDS011;32098;49.448;7.904;2024-03-23T04:57:08;5.87;;;4.60;;
46391;SDS011;32098;49.448;7.904;2024-03-23T04:59:34;6.20;;;4.50;;
46391;SDS011;32098;49.448;7.904;2024-03-23T05:02:00;5.50;;;4.10;;
46391;SDS011;32098;49.448;7.904;2024-03-23T05:04:26;5.63;;;4.40;;
46391;SDS011;32098;49.448;7.904;2024-03-23T05:06:52;3.40;;;2.10;;
46391;SDS011;32098;49.448;7.904;2024-03-23T05:09:18;2.37;;;1.90;;
46391;SDS011;32098;49.448;7.904;2024-03-23T05:11:43;1.67;;;1.47;;
46391;SDS011;32098;49.448;7.904;2024-03-23T05:14:10;1.90;;;1.50;;
46391;SDS011;32098;49.448;7.904;2024-03-23T05:16:37;1.43;;;1.33;;
46391;SDS011;32098;49.448;7.904;2024-03-23T05:19:03;1.67;;;1.33;;
46391;SDS011;32098;49.448;7.904;2024-03-23T05:21:29;1.50;;;1.00;;
46391;SDS011;32098;49.448;7.904;2024-03-23T05:23:55;2.13;;;0.97;;
46391;SDS011;32098;49.448;7.904;2024-03-23T05:26:24;1.03;;;0.90;;
46391;SDS011;32098;49.448;7.904;2024-03-23T05:28:52;1.97;;;1.20;;
46391;SDS011;32098;49.448;7.904;2024-03-23T05:31:24;0.93;;;0.73;;
46391;SDS011;32098;49.448;7.904;2024-03-23T05:33:51;0.60;;;0.60;;
46391;SDS011;32098;49.448;7.904;2024-03-23T05:36:17;0.70;;;0.70;;
46391;SDS011;32098;49.448;7.904;2024-03-23T05:38:43;0.60;;;0.60;;
46391;SDS011;32098;49.448;7.904;2024-03-23T05:41:08;0.70;;;0.70;;
46391;SDS011;32098;49.448;7.904;2024-03-23T05:43:34;0.60;;;0.60;;
46391;SDS011;32098;49.448;7.904;2024-03-23T05:46:00;0.70;;;0.67;;
46391;SDS011;32098;49.448;7.904;2024-03-23T05:48:27;3.50;;;1.90;;
46391;SDS011;32098;49.448;7.904;2024-03-23T05:50:53;0.70;;;0.70;;
46391;SDS011;32098;49.448;7.904;2024-03-23T05:53:19;2.33;;;1.20;;
46391;SDS011;32098;49.448;7.904;2024-03-23T05:55:48;1.13;;;0.90;;
46391;SDS011;32098;49.448;7.904;2024-03-23T05:58:15;2.33;;;2.10;;
46391;SDS011;32098;49.448;7.904;2024-03-23T06:00:46;3.80;;;2.80;;
46391;SDS011;32098;49.448;7.904;2024-03-23T06:03:14;2.53;;;1.77;;
46391;SDS011;32098;49.448;7.904;2024-03-23T06:05:40;1.63;;;1.40;;
46391;SDS011;32098;49.448;7.904;2024-03-23T06:08:07;0.70;;;0.60;;
46391;SDS011;32098;49.448;7.904;2024-03-23T06:10:35;2.10;;;1.60;;
46391;SDS011;32098;49.448;7.904;2024-03-23T06:13:00;0.60;;;0.40;;
46391;SDS011;32098;49.448;7.904;2024-03-23T06:15:26;1.47;;;1.07;;
46391;SDS011;32098;49.448;7.904;2024-03-23T06:17:52;0.23;;;0.23;;
46391;SDS011;32098;49.448;7.904;2024-03-23T06:20:18;0.57;;;0.40;;
46391;SDS011;32098;49.448;7.904;2024-03-23T06:22:44;0.20;;;0.20;;
46391;SDS011;32098;49.448;7.904;2024-03-23T06:27:39;0.23;;;0.23;;
46391;SDS011;32098;49.448;7.904;2024-03-23T06:30:05;0.30;;;0.30;;
46391;SDS011;32098;49.448;7.904;2024-03-23T06:32:32;0.30;;;0.30;;
46391;SDS011;32098;49.448;7.904;2024-03-23T06:34:57;0.40;;;0.40;;
46391;SDS011;32098;49.448;7.904;2024-03-23T06:37:23;0.20;;;0.20;;
46391;SDS011;32098;49.448;7.904;2024-03-23T06:39:50;0.73;;;0.10;;
46391;SDS011;32098;49.448;7.904;2024-03-23T06:42:16;0.77;;;0.20;;
46391;SDS011;32098;49.448;7.904;2024-03-23T06:44:42;0.30;;;0.30;;
46391;SDS011;32098;49.448;7.904;2024-03-23T06:47:09;0.67;;;0.67;;
46391;SDS011;32098;49.448;7.904;2024-03-23T06:49:35;1.87;;;1.70;;
46391;SDS011;32098;49.448;7.904;2024-03-23T06:52:01;2.83;;;2.17;;
46391;SDS011;32098;49.448;7.904;2024-03-23T06:54:26;3.67;;;2.80;;
46391;SDS011;32098;49.448;7.904;2024-03-23T06:56:52;2.73;;;1.83;;
46391;SDS011;32098;49.448;7.904;2024-03-23T06:59:18;5.50;;;1.67;;
46391;SDS011;32098;49.448;7.904;2024-03-23T07:01:43;1.70;;;0.97;;
46391;SDS011;32098;49.448;7.904;2024-03-23T07:04:09;2.20;;;1.30;;
46391;SDS011;32098;49.448;7.904;2024-03-23T07:06:45;2.53;;;1.10;;
46391;SDS011;32098;49.448;7.904;2024-03-23T07:09:11;2.10;;;1.10;;
46391;SDS011;32098;49.448;7.904;2024-03-23T07:11:37;2.20;;;1.17;;
46391;SDS011;32098;49.448;7.904;2024-03-23T07:14:10;2.73;;;0.90;;
46391;SDS011;32098;49.448;7.904;2024-03-23T07:16:37;5.10;;;1.30;;
46391;SDS011;32098;49.448;7.904;2024-03-23T07:19:03;3.50;;;1.40;;
46391;SDS011;32098;49.448;7.904;2024-03-23T07:21:29;4.77;;;1.37;;
46391;SDS011;32098;49.448;7.904;2024-03-23T07:23:55;2.67;;;1.17;;
46391;SDS011;32098;49.448;7.904;2024-03-23T07:26:20;2.83;;;1.13;;
46391;SDS011;32098;49.448;7.904;2024-03-23T07:28:46;5.93;;;1.40;;
46391;SDS011;32098;49.448;7.904;2024-03-23T07:31:14;3.57;;;1.93;;
46391;SDS011;32098;49.448;7.904;2024-03-23T07:33:43;4.00;;;1.50;;
46391;SDS011;32098;49.448;7.904;2024-03-23T07:36:14;5.50;;;2.00;;
46391;SDS011;32098;49.448;7.904;2024-03-23T07:38:40;2.97;;;1.83;;
46391;SDS011;32098;49.448;7.904;2024-03-23T07:41:09;5.93;;;1.73;;
46391;SDS011;32098;49.448;7.904;2024-03-23T07:43:39;5.50;;;1.90;;
46391;SDS011;32098;49.448;7.904;2024-03-23T07:46:08;3.70;;;1.50;;
46391;SDS011;32098;49.448;7.904;2024-03-23T07:48:34;4.73;;;1.90;;
46391;SDS011;32098;49.448;7.904;2024-03-23T07:53:33;5.03;;;1.90;;
46391;SDS011;32098;49.448;7.904;2024-03-23T07:56:00;4.13;;;1.80;;
46391;SDS011;32098;49.448;7.904;2024-03-23T07:58:28;6.10;;;2.43;;
46391;SDS011;32098;49.448;7.904;2024-03-23T08:00:54;6.57;;;2.50;;
46391;SDS011;32098;49.448;7.904;2024-03-23T08:03:21;3.47;;;2.23;;
46391;SDS011;32098;49.448;7.904;2024-03-23T08:05:47;5.30;;;1.97;;
46391;SDS011;32098;49.448;7.904;2024-03-23T08:08:13;5.60;;;2.10;;
46391;SDS011;32098;49.448;7.904;2024-03-23T08:10:49;4.50;;;1.90;;
46391;SDS011;32098;49.448;7.904;2024-03-23T08:13:16;7.07;;;2.20;;
46391;SDS011;32098;49.448;7.904;2024-03-23T08:15:43;5.93;;;1.90;;
46391;SDS011;32098;49.448;7.904;2024-03-23T08:18:09;6.83;;;2.40;;
46391;SDS011;32098;49.448;7.904;2024-03-23T08:20:38;6.07;;;2.40;;
46391;SDS011;32098;49.448;7.904;2024-03-23T08:23:05;5.50;;;2.20;;
46391;SDS011;32098;49.448;7.904;2024-03-23T08:25:33;6.40;;;2.90;;
46391;SDS011;32098;49.448;7.904;2024-03-23T08:27:59;4.87;;;2.63;;
46391;SDS011;32098;49.448;7.904;2024-03-23T08:30:25;5.77;;;2.37;;
46391;SDS011;32098;49.448;7.904;2024-03-23T08:32:51;7.80;;;2.47;;
46391;SDS011;32098;49.448;7.904;2024-03-23T08:35:17;4.70;;;2.20;;
46391;SDS011;32098;49.448;7.904;2024-03-23T08:37:43;6.80;;;3.20;;
46391;SDS011;32098;49.448;7.904;2024-03-23T08:40:09;6.63;;;2.88;;
46391;SDS011;32098;49.448;7.904;2024-03-23T08:42:39;6.38;;;2.95;;
46391;SDS011;32098;49.448;7.904;2024-03-23T08:45:08;6.07;;;3.13;;
46391;SDS011;32098;49.448;7.904;2024-03-23T08:47:35;7.38;;;3.28;;
46391;SDS011;32098;49.448;7.904;2024-03-23T08:50:01;9.10;;;3.22;;
46391;SDS011;32098;49.448;7.904;2024-03-23T08:52:27;7.53;;;3.03;;
46391;SDS011;32098;49.448;7.904;2024-03-23T08:54:55;9.27;;;3.55;;
46391;SDS011;32098;49.448;7.904;2024-03-23T08:57:24;10.25;;;3.63;;
46391;SDS011;32098;49.448;7.904;2024-03-23T08:59:50;9.82;;;3.45;;
46391;SDS011;32098;49.448;7.904;2024-03-23T09:02:16;4.90;;;2.97;;
46391;SDS011;32098;49.448;7.904;2024-03-23T09:04:41;5.32;;;2.60;;
46391;SDS011;32098;49.448;7.904;2024-03-23T09:07:07;9.07;;;3.58;;
46391;SDS011;32098;49.448;7.904;2024-03-23T09:09:33;5.03;;;2.65;;
46391;SDS011;32098;49.448;7.904;2024-03-23T09:12:01;7.45;;;3.30;;
46391;SDS011;32098;49.448;7.904;2024-03-23T09:14:27;8.15;;;3.22;;
46391;SDS011;32098;49.448;7.904;2024-03-23T09:16:56;5.95;;;2.72;;
46391;SDS011;32098;49.448;7.904;2024-03-23T09:19:22;8.23;;;3.10;;
46391;SDS011;32098;49.448;7.904;2024-03-23T09:21:47;6.85;;;2.88;;
46391;SDS011;32098;49.448;7.904;2024-03-23T09:24:15;7.80;;;3.03;;
46391;SDS011;32098;49.448;7.904;2024-03-23T09:26:40;8.05;;;3.55;;
46391;SDS011;32098;49.448;7.904;2024-03-23T09:29:10;5.68;;;2.92;;
46391;SDS011;32098;49.448;7.904;2024-03-23T09:31:36;8.43;;;3.60;;
46391;SDS011;32098;49.448;7.904;2024-03-23T09:34:03;7.55;;;3.17;;
46391;SDS011;32098;49.448;7.904;2024-03-23T09:36:31;5.78;;;2.60;;
46391;SDS011;32098;49.448;7.904;2024-03-23T09:38:57;9.05;;;3.00;;
46391;SDS011;32098;49.448;7.904;2024-03-23T09:41:23;7.38;;;2.70;;
46391;SDS011;32098;49.448;7.904;2024-03-23T09:43:52;6.88;;;2.78;;
46391;SDS011;32098;49.448;7.904;2024-03-23T09:46:19;8.60;;;2.63;;
46391;SDS011;32098;49.448;7.904;2024-03-23T09:48:46;7.05;;;2.45;;
46391;SDS011;32098;49.448;7.904;2024-03-23T09:51:12;4.60;;;2.05;;
46391;SDS011;32098;49.448;7.904;2024-03-23T09:53:38;5.82;;;2.55;;
46391;SDS011;32098;49.448;7.904;2024-03-23T09:56:05;6.72;;;2.70;;
46391;SDS011;32098;49.448;7.904;2024-03-23T09:58:30;9.27;;;4.75;;
46391;SDS011;32098;49.448;7.904;2024-03-23T10:00:57;8.13;;;3.13;;
46391;SDS011;32098;49.448;7.904;2024-03-23T10:03:24;7.68;;;3.65;;
46391;SDS011;32098;49.448;7.904;2024-03-23T10:06:03;8.52;;;2.85;;
46391;SDS011;32098;49.448;7.904;2024-03-23T10:08:30;7.75;;;2.85;;
46391;SDS011;32098;49.448;7.904;2024-03-23T10:10:56;7.38;;;2.97;;
46391;SDS011;32098;49.448;7.904;2024-03-23T10:13:26;6.95;;;2.38;;
46391;SDS011;32098;49.448;7.904;2024-03-23T10:15:58;7.57;;;2.97;;
46391;SDS011;32098;49.448;7.904;2024-03-23T10:18:25;4.63;;;2.33;;
46391;SDS011;32098;49.448;7.904;2024-03-23T10:20:52;6.15;;;2.20;;
46391;SDS011;32098;49.448;7.904;2024-03-23T10:23:38;5.07;;;1.75;;
46391;SDS011;32098;49.448;7.904;2024-03-23T10:28:59;5.22;;;2.30;;
46391;SDS011;32098;49.448;7.904;2024-03-23T10:31:27;8.18;;;2.47;;
46391;SDS011;32098;49.448;7.904;2024-03-23T10:33:53;5.85;;;2.50;;
46391;SDS011;32098;49.448;7.904;2024-03-23T10:36:20;6.88;;;1.90;;
46391;SDS011;32098;49.448;7.904;2024-03-23T10:38:47;7.93;;;2.17;;
46391;SDS011;32098;49.448;7.904;2024-03-23T10:41:15;5.88;;;2.25;;
46391;SDS011;32098;49.448;7.904;2024-03-23T10:43:42;11.23;;;2.60;;
46391;SDS011;32098;49.448;7.904;2024-03-23T10:46:11;5.88;;;1.83;;
46391;SDS011;32098;49.448;7.904;2024-03-23T10:48:37;7.38;;;2.45;;
46391;SDS011;32098;49.448;7.904;2024-03-23T10:51:06;7.60;;;2.85;;
46391;SDS011;32098;49.448;7.904;2024-03-23T10:53:34;10.13;;;2.65;;
46391;SDS011;32098;49.448;7.904;2024-03-23T10:56:02;6.53;;;2.22;;
46391;SDS011;32098;49.448;7.904;2024-03-23T10:58:37;8.02;;;2.33;;
46391;SDS011;32098;49.448;7.904;2024-03-23T11:01:04;5.20;;;2.00;;
46391;SDS011;32098;49.448;7.904;2024-03-23T11:03:35;5.60;;;2.40;;
46391;SDS011;32098;49.448;7.904;2024-03-23T11:06:06;4.63;;;2.08;;
46391;SDS011;32098;49.448;7.904;2024-03-23T11:08:39;3.33;;;2.00;;
46391;SDS011;32098;49.448;7.904;2024-03-23T11:11:17;4.70;;;1.77;;
46391;SDS011;32098;49.448;7.904;2024-03-23T11:13:50;4.10;;;1.70;;
46391;SDS011;32098;49.448;7.904;2024-03-23T11:16:17;4.40;;;2.00;;
46391;SDS011;32098;49.448;7.904;2024-03-23T11:18:51;4.13;;;2.00;;
46391;SDS011;32098;49.448;7.904;2024-03-23T11:24:19;3.43;;;1.50;;
46391;SDS011;32098;49.448;7.904;2024-03-23T11:26:46;3.60;;;1.60;;
46391;SDS011;32098;49.448;7.904;2024-03-23T11:29:14;3.63;;;1.50;;
46391;SDS011;32098;49.448;7.904;2024-03-23T11:31:48;3.60;;;1.47;;
46391;SDS011;32098;49.448;7.904;2024-03-23T11:34:17;3.10;;;1.30;;
46391;SDS011;32098;49.448;7.904;2024-03-23T11:36:48;2.23;;;1.50;;
46391;SDS011;32098;49.448;7.904;2024-03-23T11:39:16;3.73;;;1.67;;
46391;SDS011;32098;49.448;7.904;2024-03-23T11:41:53;4.57;;;1.53;;
46391;SDS011;32098;49.448;7.904;2024-03-23T11:44:25;2.67;;;1.73;;
46391;SDS011;32098;49.448;7.904;2024-03-23T11:46:52;3.03;;;1.50;;
46391;SDS011;32098;49.448;7.904;2024-03-23T11:51:50;2.63;;;1.17;;
46391;SDS011;32098;49.448;7.904;2024-03-23T11:54:20;1.70;;;0.90;;
46391;SDS011;32098;49.448;7.904;2024-03-23T11:57:04;1.90;;;0.80;;
46391;SDS011;32098;49.448;7.904;2024-03-23T11:59:34;1.27;;;0.73;;
46391;SDS011;32098;49.448;7.904;2024-03-23T12:02:11;1.70;;;1.17;;
46391;SDS011;32098;49.448;7.904;2024-03-23T12:04:39;1.40;;;0.70;;
46391;SDS011;32098;49.448;7.904;2024-03-23T12:07:12;1.60;;;1.20;;
46391;SDS011;32098;49.448;7.904;2024-03-23T12:09:40;2.73;;;1.57;;
46391;SDS011;32098;49.448;7.904;2024-03-23T12:14:37;2.70;;;1.37;;
46391;SDS011;32098;49.448;7.904;2024-03-23T12:17:13;5.00;;;1.93;;
46391;SDS011;32098;49.448;7.904;2024-03-23T12:19:40;3.50;;;1.47;;
46391;SDS011;32098;49.448;7.904;2024-03-23T12:22:07;3.30;;;1.60;;
46391;SDS011;32098;49.448;7.904;2024-03-23T12:24:37;2.27;;;0.80;;
46391;SDS011;32098;49.448;7.904;2024-03-23T12:27:04;2.97;;;1.20;;
46391;SDS011;32098;49.448;7.904;2024-03-23T12:29:31;2.27;;;1.30;;
46391;SDS011;32098;49.448;7.904;2024-03-23T12:32:05;1.77;;;1.00;;
46391;SDS011;32098;49.448;7.904;2024-03-23T12:37:25;1.60;;;1.00;;
46391;SDS011;32098;49.448;7.904;2024-03-23T12:39:51;2.37;;;1.30;;
46391;SDS011;32098;49.448;7.904;2024-03-23T12:42:17;4.60;;;1.60;;
46391;SDS011;32098;49.448;7.904;2024-03-23T12:44:43;2.70;;;1.40;;
46391;SDS011;32098;49.448;7.904;2024-03-23T12:47:09;3.03;;;0.93;;
46391;SDS011;32098;49.448;7.904;2024-03-23T12:49:36;2.10;;;1.27;;
46391;SDS011;32098;49.448;7.904;2024-03-23T12:52:02;2.90;;;1.13;;
46391;SDS011;32098;49.448;7.904;2024-03-23T12:54:33;3.67;;;1.60;;
46391;SDS011;32098;49.448;7.904;2024-03-23T12:57:00;3.00;;;1.27;;
46391;SDS011;32098;49.448;7.904;2024-03-23T12:59:27;3.73;;;1.37;;
46391;SDS011;32098;49.448;7.904;2024-03-23T13:01:53;3.30;;;0.90;;
46391;SDS011;32098;49.448;7.904;2024-03-23T13:04:20;1.63;;;0.87;;
46391;SDS011;32098;49.448;7.904;2024-03-23T13:06:46;3.23;;;1.20;;
46391;SDS011;32098;49.448;7.904;2024-03-23T13:09:13;2.90;;;0.87;;
46391;SDS011;32098;49.448;7.904;2024-03-23T13:11:39;1.37;;;0.70;;
46391;SDS011;32098;49.448;7.904;2024-03-23T13:14:05;1.97;;;0.97;;
46391;SDS011;32098;49.448;7.904;2024-03-23T13:16:31;3.27;;;1.00;;
46391;SDS011;32098;49.448;7.904;2024-03-23T13:18:57;1.97;;;1.20;;
46391;SDS011;32098;49.448;7.904;2024-03-23T13:21:23;2.10;;;0.80;;
46391;SDS011;32098;49.448;7.904;2024-03-23T13:23:49;3.10;;;0.93;;
46391;SDS011;32098;49.448;7.904;2024-03-23T13:26:16;1.33;;;1.00;;
46391;SDS011;32098;49.448;7.904;2024-03-23T13:28:42;4.27;;;1.30;;
46391;SDS011;32098;49.448;7.904;2024-03-23T13:31:08;5.13;;;1.40;;
46391;SDS011;32098;49.448;7.904;2024-03-23T13:33:34;1.73;;;1.07;;
46391;SDS011;32098;49.448;7.904;2024-03-23T13:36:00;2.17;;;0.70;;
46391;SDS011;32098;49.448;7.904;2024-03-23T13:38:26;4.63;;;0.93;;
46391;SDS011;32098;49.448;7.904;2024-03-23T13:40:52;2.07;;;1.10;;
46391;SDS011;32098;49.448;7.904;2024-03-23T13:43:19;3.67;;;1.20;;
46391;SDS011;32098;49.448;7.904;2024-03-23T13:45:46;2.20;;;0.77;;
46391;SDS011;32098;49.448;7.904;2024-03-23T13:48:15;2.43;;;0.60;;
46391;SDS011;32098;49.448;7.904;2024-03-23T13:50:41;3.23;;;0.57;;
46391;SDS011;32098;49.448;7.904;2024-03-23T13:53:07;1.33;;;0.60;;
46391;SDS011;32098;49.448;7.904;2024-03-23T13:55:34;2.87;;;0.83;;
46391;SDS011;32098;49.448;7.904;2024-03-23T13:58:00;1.30;;;0.63;;
46391;SDS011;32098;49.448;7.904;2024-03-23T14:00:25;1.70;;;0.80;;
46391;SDS011;32098;49.448;7.904;2024-03-23T14:02:51;1.10;;;0.80;;
46391;SDS011;32098;49.448;7.904;2024-03-23T14:05:17;2.10;;;0.40;;
46391;SDS011;32098;49.448;7.904;2024-03-23T14:07:43;2.23;;;0.90;;
46391;SDS011;32098;49.448;7.904;2024-03-23T14:10:09;2.27;;;0.70;;
46391;SDS011;32098;49.448;7.904;2024-03-23T14:12:38;2.30;;;0.80;;
46391;SDS011;32098;49.448;7.904;2024-03-23T14:15:07;1.37;;;0.80;;
46391;SDS011;32098;49.448;7.904;2024-03-23T14:17:33;1.27;;;0.60;;
46391;SDS011;32098;49.448;7.904;2024-03-23T14:20:00;1.47;;;0.60;;
46391;SDS011;32098;49.448;7.904;2024-03-23T14:22:27;3.30;;;1.50;;
46391;SDS011;32098;49.448;7.904;2024-03-23T14:24:53;2.80;;;1.27;;
46391;SDS011;32098;49.448;7.904;2024-03-23T14:27:19;4.50;;;2.03;;
46391;SDS011;32098;49.448;7.904;2024-03-23T14:29:45;3.30;;;1.40;;
46391;SDS011;32098;49.448;7.904;2024-03-23T14:32:12;5.03;;;1.40;;
46391;SDS011;32098;49.448;7.904;2024-03-23T14:34:38;2.13;;;0.90;;
46391;SDS011;32098;49.448;7.904;2024-03-23T14:37:29;4.27;;;1.47;;
46391;SDS011;32098;49.448;7.904;2024-03-23T14:39:55;2.43;;;1.13;;
46391;SDS011;32098;49.448;7.904;2024-03-23T14:42:22;4.00;;;1.67;;
46391;SDS011;32098;49.448;7.904;2024-03-23T14:44:49;1.87;;;0.77;;
46391;SDS011;32098;49.448;7.904;2024-03-23T14:47:18;3.53;;;0.93;;
46391;SDS011;32098;49.448;7.904;2024-03-23T14:49:45;2.73;;;0.83;;
46391;SDS011;32098;49.448;7.904;2024-03-23T14:52:19;4.23;;;1.10;;
46391;SDS011;32098;49.448;7.904;2024-03-23T14:54:49;2.43;;;0.97;;
46391;SDS011;32098;49.448;7.904;2024-03-23T14:57:15;2.53;;;1.23;;
46391;SDS011;32098;49.448;7.904;2024-03-23T14:59:41;3.07;;;1.07;;
46391;SDS011;32098;49.448;7.904;2024-03-23T15:02:07;3.90;;;1.10;;
46391;SDS011;32098;49.448;7.904;2024-03-23T15:04:33;2.63;;;0.83;;
46391;SDS011;32098;49.448;7.904;2024-03-23T15:06:59;2.43;;;1.00;;
46391;SDS011;32098;49.448;7.904;2024-03-23T15:09:26;2.30;;;0.80;;
46391;SDS011;32098;49.448;7.904;2024-03-23T15:11:52;1.60;;;0.80;;
46391;SDS011;32098;49.448;7.904;2024-03-23T15:14:20;0.90;;;0.60;;
46391;SDS011;32098;49.448;7.904;2024-03-23T15:16:46;1.77;;;0.90;;
46391;SDS011;32098;49.448;7.904;2024-03-23T15:19:14;1.73;;;0.90;;
46391;SDS011;32098;49.448;7.904;2024-03-23T15:21:43;2.87;;;0.80;;
46391;SDS011;32098;49.448;7.904;2024-03-23T15:24:09;2.80;;;1.20;;
46391;SDS011;32098;49.448;7.904;2024-03-23T15:26:38;2.00;;;0.97;;
46391;SDS011;32098;49.448;7.904;2024-03-23T15:29:04;2.07;;;1.10;;
46391;SDS011;32098;49.448;7.904;2024-03-23T15:31:36;0.50;;;0.50;;
46391;SDS011;32098;49.448;7.904;2024-03-23T15:34:02;3.23;;;1.10;;
46391;SDS011;32098;49.448;7.904;2024-03-23T15:36:31;3.63;;;1.70;;
46391;SDS011;32098;49.448;7.904;2024-03-23T15:38:57;2.83;;;1.43;;
46391;SDS011;32098;49.448;7.904;2024-03-23T15:41:23;1.90;;;1.27;;
46391;SDS011;32098;49.448;7.904;2024-03-23T15:43:50;1.50;;;1.27;;
46391;SDS011;32098;49.448;7.904;2024-03-23T15:46:21;3.03;;;1.50;;
46391;SDS011;32098;49.448;7.904;2024-03-23T15:48:47;3.43;;;2.87;;
46391;SDS011;32098;49.448;7.904;2024-03-23T15:51:14;8.77;;;3.90;;
46391;SDS011;32098;49.448;7.904;2024-03-23T15:53:40;7.90;;;4.20;;